Kayenta, AZ

5:16 AM MDT on August 27, 2014 (GMT -0600)
Page Municipal | Change Station
CLOSE
Current Station
Airport
Location: Page,
Elevation: 4308 ft
Nearby Weather Stations

Elev 4308 ft 36.92 °N, 111.45 °W | Updated 23 minutes ago

Mostly Cloudy
Mostly Cloudy
59 °F
Feels Like 59 °F
N
0
Wind Variable Wind from North

Today
High -- | Low -- °F
--% Chance of Precip.
Yesterday
High -- | Low -- °F
Precip. -- in
6:48 AM 7:56 PM
Waxing Crescent, 3% visible
Pressure 30.11 in
Visibility 10.0 miles
Clouds Mostly Cloudy 9000 ft
Dew Point 51 °F
Humidity 75%
Rainfall 0.00 in
Snow Depth Not available.
UV 0 out of 12
Pollen 6.40 out of 12
Air Quality Not available.
Flu Activity Not available.
METAR KPGA 271053Z AUTO 00000KT 10SM BKN090 15/11 A3024 RMK AO2 SLP194 T01500106

More Conditions Fewer Conditions

Pressure 30.11 in
Visibility 10.0 miles
Clouds Mostly Cloudy 9000 ft
Dew Point 51 °F
Humidity 75%
Rainfall 0.00 in
Snow Depth Not available.
UV 0 out of 12
Pollen 6.40 out of 12
Air Quality Not available.
Flu Activity Not available.
METAR KPGA 271053Z AUTO 00000KT 10SM BKN090 15/11 A3024 RMK AO2 SLP194 T01500106

More Conditions Fewer Conditions

10-Day Weather Forecast

Almanac

Astronomy

Aug. 27, 2014 Rise Set
Actual Time 6:48 AM MDT 7:56 PM MDT
Civil Twilight 6:21 AM MDT 8:22 PM MDT
Nautical Twilight 5:49 AM MDT 8:54 PM MDT
Astronomical Twilight 5:16 AM MDT 9:27 PM MDT
Moon 8:43 AM MDT 8:55 PM MDT
Length of Visible Light 14h 01m
Length of Day
13h 07m
Tomorrow will be 2m 12s shorter.
Waxing Crescent, 3% of the Moon is Illuminated
Today
Waxing Crescent
Sep 2
First Quarter
Sep 8
Full
Sep 15
Last Quarter
Sep 24
New

Today's Extremes

State Highs State Lows

Community

WunderPhotos

Upload Photos

1,747,667 photos uploaded!

Nearby

Snow Depth

Station Depth Elevation
Snowslide Canyon 1 in 9730 ft
Happy Jack 0 in 7630 ft
White Horse Lake 0 in 7180 ft
Promontory 0 in 7930 ft
Maverick Fork 0 in 9200 ft

Earthquake Activity

City Distance Mag. Time & Date
No recent earthquake activity has been reported nearby.
Minimum magnitude displayed is 2.5.

Coastal Water Temperatures

Place Temperature
No Stations Reporting

Nearby Weather Stations